sensor_id;sensor_type;location;lat;lon;timestamp;P1;durP1;ratioP1;P2;durP2;ratioP2
10687;SDS011;5392;42.688;23.298;2022-09-12T00:01:48;4.28;;;4.18;;
10687;SDS011;5392;42.688;23.298;2022-09-12T00:04:15;4.72;;;4.63;;
10687;SDS011;5392;42.688;23.298;2022-09-12T00:06:41;5.63;;;5.43;;
10687;SDS011;5392;42.688;23.298;2022-09-12T00:09:10;5.68;;;5.30;;
10687;SDS011;5392;42.688;23.298;2022-09-12T00:11:39;5.85;;;5.55;;
10687;SDS011;5392;42.688;23.298;2022-09-12T00:14:09;6.15;;;5.78;;
10687;SDS011;5392;42.688;23.298;2022-09-12T00:16:38;5.88;;;5.57;;
10687;SDS011;5392;42.688;23.298;2022-09-12T00:19:05;6.43;;;6.13;;
10687;SDS011;5392;42.688;23.298;2022-09-12T00:21:33;5.72;;;5.40;;
10687;SDS011;5392;42.688;23.298;2022-09-12T00:24:02;4.93;;;4.72;;
10687;SDS011;5392;42.688;23.298;2022-09-12T00:26:29;4.40;;;4.20;;
10687;SDS011;5392;42.688;23.298;2022-09-12T00:28:56;4.85;;;4.47;;
10687;SDS011;5392;42.688;23.298;2022-09-12T00:31:23;4.13;;;3.83;;
10687;SDS011;5392;42.688;23.298;2022-09-12T00:33:51;4.55;;;4.00;;
10687;SDS011;5392;42.688;23.298;2022-09-12T00:36:21;4.25;;;4.15;;
10687;SDS011;5392;42.688;23.298;2022-09-12T00:38:50;4.50;;;4.32;;
10687;SDS011;5392;42.688;23.298;2022-09-12T00:41:31;4.70;;;4.50;;
10687;SDS011;5392;42.688;23.298;2022-09-12T00:49:23;4.97;;;4.68;;
10687;SDS011;5392;42.688;23.298;2022-09-12T00:52:43;4.10;;;3.97;;
10687;SDS011;5392;42.688;23.298;2022-09-12T00:55:36;5.20;;;5.10;;
10687;SDS011;5392;42.688;23.298;2022-09-12T00:57:57;4.53;;;4.40;;
10687;SDS011;5392;42.688;23.298;2022-09-12T01:00:28;4.50;;;4.30;;
10687;SDS011;5392;42.688;23.298;2022-09-12T01:03:06;4.88;;;4.50;;
10687;SDS011;5392;42.688;23.298;2022-09-12T01:05:36;5.00;;;4.45;;
10687;SDS011;5392;42.688;23.298;2022-09-12T01:08:06;3.72;;;3.63;;
10687;SDS011;5392;42.688;23.298;2022-09-12T01:10:33;4.55;;;4.35;;
10687;SDS011;5392;42.688;23.298;2022-09-12T01:13:03;5.03;;;4.85;;
10687;SDS011;5392;42.688;23.298;2022-09-12T01:15:32;4.85;;;4.65;;
10687;SDS011;5392;42.688;23.298;2022-09-12T01:28:43;4.15;;;3.95;;
10687;SDS011;5392;42.688;23.298;2022-09-12T01:39:04;3.58;;;3.30;;
10687;SDS011;5392;42.688;23.298;2022-09-12T01:47:26;3.42;;;3.22;;
10687;SDS011;5392;42.688;23.298;2022-09-12T01:50:05;3.03;;;3.03;;
10687;SDS011;5392;42.688;23.298;2022-09-12T01:52:48;3.10;;;3.00;;
10687;SDS011;5392;42.688;23.298;2022-09-12T01:58:07;3.33;;;3.13;;
10687;SDS011;5392;42.688;23.298;2022-09-12T02:00:47;2.47;;;2.45;;
10687;SDS011;5392;42.688;23.298;2022-09-12T02:03:24;3.35;;;3.15;;
10687;SDS011;5392;42.688;23.298;2022-09-12T02:06:00;2.90;;;2.80;;
10687;SDS011;5392;42.688;23.298;2022-09-12T02:08:41;1.95;;;1.95;;
10687;SDS011;5392;42.688;23.298;2022-09-12T02:11:12;3.15;;;3.03;;
10687;SDS011;5392;42.688;23.298;2022-09-12T02:16:15;3.78;;;3.58;;
10687;SDS011;5392;42.688;23.298;2022-09-12T02:18:44;6.18;;;4.07;;
10687;SDS011;5392;42.688;23.298;2022-09-12T02:21:16;5.45;;;5.03;;
10687;SDS011;5392;42.688;23.298;2022-09-12T02:23:46;5.68;;;5.38;;
10687;SDS011;5392;42.688;23.298;2022-09-12T02:26:22;6.25;;;5.80;;
10687;SDS011;5392;42.688;23.298;2022-09-12T02:28:59;5.72;;;5.32;;
10687;SDS011;5392;42.688;23.298;2022-09-12T02:31:36;5.13;;;4.93;;
10687;SDS011;5392;42.688;23.298;2022-09-12T02:39:28;4.30;;;3.40;;
10687;SDS011;5392;42.688;23.298;2022-09-12T02:41:55;3.40;;;3.30;;
10687;SDS011;5392;42.688;23.298;2022-09-12T02:44:24;3.40;;;3.20;;
10687;SDS011;5392;42.688;23.298;2022-09-12T02:47:01;3.55;;;3.22;;
10687;SDS011;5392;42.688;23.298;2022-09-12T02:49:32;4.68;;;4.22;;
10687;SDS011;5392;42.688;23.298;2022-09-12T02:51:59;3.92;;;3.20;;
10687;SDS011;5392;42.688;23.298;2022-09-12T02:54:27;4.18;;;2.80;;
10687;SDS011;5392;42.688;23.298;2022-09-12T02:56:55;3.30;;;2.92;;
10687;SDS011;5392;42.688;23.298;2022-09-12T02:59:22;2.88;;;2.63;;
10687;SDS011;5392;42.688;23.298;2022-09-12T03:20:52;2.70;;;2.50;;
10687;SDS011;5392;42.688;23.298;2022-09-12T03:23:23;2.55;;;2.42;;
10687;SDS011;5392;42.688;23.298;2022-09-12T03:26:15;4.63;;;2.63;;
10687;SDS011;5392;42.688;23.298;2022-09-12T03:28:56;2.50;;;2.40;;
10687;SDS011;5392;42.688;23.298;2022-09-12T03:31:24;6.47;;;3.10;;
10687;SDS011;5392;42.688;23.298;2022-09-12T03:33:51;2.20;;;2.10;;
10687;SDS011;5392;42.688;23.298;2022-09-12T03:36:24;3.17;;;3.08;;
10687;SDS011;5392;42.688;23.298;2022-09-12T03:38:53;3.75;;;3.55;;
10687;SDS011;5392;42.688;23.298;2022-09-12T03:41:20;3.78;;;3.42;;
10687;SDS011;5392;42.688;23.298;2022-09-12T03:43:47;3.75;;;3.60;;
10687;SDS011;5392;42.688;23.298;2022-09-12T03:46:14;4.18;;;3.42;;
10687;SDS011;5392;42.688;23.298;2022-09-12T03:48:41;4.65;;;4.32;;
10687;SDS011;5392;42.688;23.298;2022-09-12T03:53:53;3.45;;;3.35;;
10687;SDS011;5392;42.688;23.298;2022-09-12T03:56:20;4.43;;;4.22;;
10687;SDS011;5392;42.688;23.298;2022-09-12T03:58:46;4.30;;;3.53;;
10687;SDS011;5392;42.688;23.298;2022-09-12T04:01:14;3.38;;;3.25;;
10687;SDS011;5392;42.688;23.298;2022-09-12T04:03:43;3.70;;;3.47;;
10687;SDS011;5392;42.688;23.298;2022-09-12T04:06:12;5.32;;;4.50;;
10687;SDS011;5392;42.688;23.298;2022-09-12T04:08:41;3.70;;;3.42;;
10687;SDS011;5392;42.688;23.298;2022-09-12T04:11:12;3.88;;;3.55;;
10687;SDS011;5392;42.688;23.298;2022-09-12T04:13:41;3.58;;;3.28;;
10687;SDS011;5392;42.688;23.298;2022-09-12T04:16:09;3.53;;;3.38;;
10687;SDS011;5392;42.688;23.298;2022-09-12T04:18:38;6.30;;;4.03;;
10687;SDS011;5392;42.688;23.298;2022-09-12T04:21:06;10.80;;;3.33;;
10687;SDS011;5392;42.688;23.298;2022-09-12T04:23:34;4.05;;;3.67;;
10687;SDS011;5392;42.688;23.298;2022-09-12T04:26:02;3.15;;;2.38;;
10687;SDS011;5392;42.688;23.298;2022-09-12T04:28:32;2.85;;;2.75;;
10687;SDS011;5392;42.688;23.298;2022-09-12T04:31:00;3.10;;;2.95;;
10687;SDS011;5392;42.688;23.298;2022-09-12T04:33:29;3.28;;;2.35;;
10687;SDS011;5392;42.688;23.298;2022-09-12T04:35:56;4.25;;;2.22;;
10687;SDS011;5392;42.688;23.298;2022-09-12T04:38:27;3.95;;;1.60;;
10687;SDS011;5392;42.688;23.298;2022-09-12T04:40:54;1.95;;;1.30;;
10687;SDS011;5392;42.688;23.298;2022-09-12T04:43:22;1.20;;;1.20;;
10687;SDS011;5392;42.688;23.298;2022-09-12T04:45:49;1.55;;;1.17;;
10687;SDS011;5392;42.688;23.298;2022-09-12T04:48:16;2.78;;;2.28;;
10687;SDS011;5392;42.688;23.298;2022-09-12T04:50:43;3.20;;;1.30;;
10687;SDS011;5392;42.688;23.298;2022-09-12T04:53:10;1.10;;;0.90;;
10687;SDS011;5392;42.688;23.298;2022-09-12T04:55:36;2.28;;;1.00;;
10687;SDS011;5392;42.688;23.298;2022-09-12T04:58:03;3.42;;;1.30;;
10687;SDS011;5392;42.688;23.298;2022-09-12T05:00:30;0.85;;;0.82;;
10687;SDS011;5392;42.688;23.298;2022-09-12T05:02:56;1.30;;;1.20;;
10687;SDS011;5392;42.688;23.298;2022-09-12T05:05:23;1.30;;;0.88;;
10687;SDS011;5392;42.688;23.298;2022-09-12T05:07:50;0.68;;;0.50;;
10687;SDS011;5392;42.688;23.298;2022-09-12T05:10:17;1.15;;;0.90;;
10687;SDS011;5392;42.688;23.298;2022-09-12T05:12:43;2.17;;;0.50;;
10687;SDS011;5392;42.688;23.298;2022-09-12T05:15:10;0.98;;;0.70;;
10687;SDS011;5392;42.688;23.298;2022-09-12T05:17:37;5.18;;;1.15;;
10687;SDS011;5392;42.688;23.298;2022-09-12T05:20:03;0.80;;;0.60;;
10687;SDS011;5392;42.688;23.298;2022-09-12T05:22:30;0.98;;;0.80;;
10687;SDS011;5392;42.688;23.298;2022-09-12T05:24:57;5.85;;;0.90;;
10687;SDS011;5392;42.688;23.298;2022-09-12T05:27:24;3.05;;;0.82;;
10687;SDS011;5392;42.688;23.298;2022-09-12T05:29:50;3.20;;;1.48;;
10687;SDS011;5392;42.688;23.298;2022-09-12T05:32:17;3.33;;;1.10;;
10687;SDS011;5392;42.688;23.298;2022-09-12T05:34:43;3.65;;;1.00;;
10687;SDS011;5392;42.688;23.298;2022-09-12T05:37:10;5.82;;;1.20;;
10687;SDS011;5392;42.688;23.298;2022-09-12T05:39:37;0.98;;;0.88;;
10687;SDS011;5392;42.688;23.298;2022-09-12T05:42:04;1.38;;;0.65;;
10687;SDS011;5392;42.688;23.298;2022-09-12T05:44:31;1.65;;;0.70;;
10687;SDS011;5392;42.688;23.298;2022-09-12T05:46:58;6.13;;;1.15;;
10687;SDS011;5392;42.688;23.298;2022-09-12T05:49:25;5.28;;;1.10;;
10687;SDS011;5392;42.688;23.298;2022-09-12T05:51:51;4.53;;;0.95;;
10687;SDS011;5392;42.688;23.298;2022-09-12T05:54:18;1.35;;;1.08;;
10687;SDS011;5392;42.688;23.298;2022-09-12T05:56:45;2.80;;;1.50;;
10687;SDS011;5392;42.688;23.298;2022-09-12T05:59:17;5.78;;;3.35;;
10687;SDS011;5392;42.688;23.298;2022-09-12T06:01:45;4.72;;;2.10;;
10687;SDS011;5392;42.688;23.298;2022-09-12T06:04:13;3.92;;;0.68;;
10687;SDS011;5392;42.688;23.298;2022-09-12T06:06:41;4.15;;;0.73;;
10687;SDS011;5392;42.688;23.298;2022-09-12T06:09:13;6.18;;;1.45;;
10687;SDS011;5392;42.688;23.298;2022-09-12T06:11:41;5.20;;;1.40;;
10687;SDS011;5392;42.688;23.298;2022-09-12T06:14:09;5.53;;;1.25;;
10687;SDS011;5392;42.688;23.298;2022-09-12T06:16:38;2.17;;;0.93;;
10687;SDS011;5392;42.688;23.298;2022-09-12T06:19:06;4.95;;;1.30;;
10687;SDS011;5392;42.688;23.298;2022-09-12T06:21:38;1.10;;;1.10;;
10687;SDS011;5392;42.688;23.298;2022-09-12T06:24:05;3.08;;;1.60;;
10687;SDS011;5392;42.688;23.298;2022-09-12T06:26:32;6.70;;;1.40;;
10687;SDS011;5392;42.688;23.298;2022-09-12T06:28:59;1.55;;;1.23;;
10687;SDS011;5392;42.688;23.298;2022-09-12T06:31:30;5.05;;;1.20;;
10687;SDS011;5392;42.688;23.298;2022-09-12T06:34:00;2.33;;;0.80;;
10687;SDS011;5392;42.688;23.298;2022-09-12T06:36:30;3.22;;;1.20;;
10687;SDS011;5392;42.688;23.298;2022-09-12T06:38:59;5.97;;;0.90;;
10687;SDS011;5392;42.688;23.298;2022-09-12T06:41:30;4.35;;;1.25;;
10687;SDS011;5392;42.688;23.298;2022-09-12T06:43:58;1.10;;;1.00;;
10687;SDS011;5392;42.688;23.298;2022-09-12T06:46:25;1.60;;;0.70;;
10687;SDS011;5392;42.688;23.298;2022-09-12T06:48:56;0.90;;;0.90;;
10687;SDS011;5392;42.688;23.298;2022-09-12T06:51:25;3.00;;;1.80;;
10687;SDS011;5392;42.688;23.298;2022-09-12T06:53:53;1.40;;;1.30;;
10687;SDS011;5392;42.688;23.298;2022-09-12T06:56:23;6.43;;;1.48;;
10687;SDS011;5392;42.688;23.298;2022-09-12T06:58:52;2.90;;;1.13;;
10687;SDS011;5392;42.688;23.298;2022-09-12T07:01:27;1.20;;;0.50;;
10687;SDS011;5392;42.688;23.298;2022-09-12T07:03:57;6.80;;;1.80;;
10687;SDS011;5392;42.688;23.298;2022-09-12T07:06:26;3.58;;;0.75;;
10687;SDS011;5392;42.688;23.298;2022-09-12T07:08:58;2.25;;;0.60;;
10687;SDS011;5392;42.688;23.298;2022-09-12T07:11:30;1.35;;;0.80;;
10687;SDS011;5392;42.688;23.298;2022-09-12T07:13:59;1.25;;;0.85;;
10687;SDS011;5392;42.688;23.298;2022-09-12T07:16:27;1.92;;;0.70;;
10687;SDS011;5392;42.688;23.298;2022-09-12T07:19:00;2.22;;;0.90;;
10687;SDS011;5392;42.688;23.298;2022-09-12T07:21:27;2.22;;;1.27;;
10687;SDS011;5392;42.688;23.298;2022-09-12T07:23:55;2.72;;;1.10;;
10687;SDS011;5392;42.688;23.298;2022-09-12T07:26:24;1.38;;;0.95;;
10687;SDS011;5392;42.688;23.298;2022-09-12T07:28:53;4.85;;;1.50;;
10687;SDS011;5392;42.688;23.298;2022-09-12T07:31:41;2.50;;;1.00;;
10687;SDS011;5392;42.688;23.298;2022-09-12T07:34:08;2.10;;;0.90;;
10687;SDS011;5392;42.688;23.298;2022-09-12T07:36:35;3.50;;;0.85;;
10687;SDS011;5392;42.688;23.298;2022-09-12T07:39:02;2.25;;;1.33;;
10687;SDS011;5392;42.688;23.298;2022-09-12T07:41:29;1.98;;;1.25;;
10687;SDS011;5392;42.688;23.298;2022-09-12T07:43:59;1.90;;;1.80;;
10687;SDS011;5392;42.688;23.298;2022-09-12T07:46:27;1.83;;;1.73;;
10687;SDS011;5392;42.688;23.298;2022-09-12T07:48:56;1.48;;;1.35;;
10687;SDS011;5392;42.688;23.298;2022-09-12T07:51:25;4.75;;;3.78;;
10687;SDS011;5392;42.688;23.298;2022-09-12T07:53:53;1.67;;;1.52;;
10687;SDS011;5392;42.688;23.298;2022-09-12T07:56:21;2.97;;;2.90;;
10687;SDS011;5392;42.688;23.298;2022-09-12T07:58:55;4.68;;;2.60;;
10687;SDS011;5392;42.688;23.298;2022-09-12T08:01:22;2.28;;;1.58;;
10687;SDS011;5392;42.688;23.298;2022-09-12T08:03:51;3.33;;;1.75;;
10687;SDS011;5392;42.688;23.298;2022-09-12T08:06:20;3.08;;;1.95;;
10687;SDS011;5392;42.688;23.298;2022-09-12T08:08:53;0.95;;;0.95;;
10687;SDS011;5392;42.688;23.298;2022-09-12T08:11:20;0.95;;;0.95;;
10687;SDS011;5392;42.688;23.298;2022-09-12T08:13:48;1.33;;;1.02;;
10687;SDS011;5392;42.688;23.298;2022-09-12T08:16:21;0.80;;;0.80;;
10687;SDS011;5392;42.688;23.298;2022-09-12T08:18:50;4.43;;;1.35;;
10687;SDS011;5392;42.688;23.298;2022-09-12T08:21:18;1.20;;;1.08;;
10687;SDS011;5392;42.688;23.298;2022-09-12T08:23:56;2.58;;;1.20;;
10687;SDS011;5392;42.688;23.298;2022-09-12T08:26:24;2.85;;;0.70;;
10687;SDS011;5392;42.688;23.298;2022-09-12T08:28:51;1.77;;;0.80;;
10687;SDS011;5392;42.688;23.298;2022-09-12T08:31:19;0.80;;;0.80;;
10687;SDS011;5392;42.688;23.298;2022-09-12T08:33:47;1.48;;;0.70;;
10687;SDS011;5392;42.688;23.298;2022-09-12T08:36:21;2.10;;;0.60;;
10687;SDS011;5392;42.688;23.298;2022-09-12T08:38:50;1.02;;;0.50;;
10687;SDS011;5392;42.688;23.298;2022-09-12T08:41:29;0.50;;;0.50;;
10687;SDS011;5392;42.688;23.298;2022-09-12T08:52:03;0.80;;;0.80;;
10687;SDS011;5392;42.688;23.298;2022-09-12T08:54:36;0.60;;;0.60;;
10687;SDS011;5392;42.688;23.298;2022-09-12T08:57:05;0.60;;;0.60;;
10687;SDS011;5392;42.688;23.298;2022-09-12T08:59:39;1.23;;;1.23;;
10687;SDS011;5392;42.688;23.298;2022-09-12T09:05:40;3.30;;;1.10;;
10687;SDS011;5392;42.688;23.298;2022-09-12T09:16:31;0.65;;;0.60;;
10687;SDS011;5392;42.688;23.298;2022-09-12T09:19:03;0.90;;;0.90;;
10687;SDS011;5392;42.688;23.298;2022-09-12T09:21:39;1.40;;;1.40;;
10687;SDS011;5392;42.688;23.298;2022-09-12T09:24:13;4.60;;;1.20;;
10687;SDS011;5392;42.688;23.298;2022-09-12T09:29:27;0.70;;;0.70;;
10687;SDS011;5392;42.688;23.298;2022-09-12T09:32:02;1.00;;;0.80;;
10687;SDS011;5392;42.688;23.298;2022-09-12T09:34:35;1.25;;;0.88;;
10687;SDS011;5392;42.688;23.298;2022-09-12T09:39:38;0.77;;;0.77;;
10687;SDS011;5392;42.688;23.298;2022-09-12T09:43:07;1.85;;;0.88;;
10687;SDS011;5392;42.688;23.298;2022-09-12T09:45:30;1.40;;;1.30;;
10687;SDS011;5392;42.688;23.298;2022-09-12T09:47:59;1.45;;;0.85;;
10687;SDS011;5392;42.688;23.298;2022-09-12T09:50:31;1.67;;;1.02;;
10687;SDS011;5392;42.688;23.298;2022-09-12T09:52:58;1.30;;;0.70;;
10687;SDS011;5392;42.688;23.298;2022-09-12T09:55:29;2.20;;;1.00;;
10687;SDS011;5392;42.688;23.298;2022-09-12T09:58:03;1.00;;;1.00;;
10687;SDS011;5392;42.688;23.298;2022-09-12T10:00:33;2.00;;;1.90;;
10687;SDS011;5392;42.688;23.298;2022-09-12T10:03:03;2.50;;;0.90;;
10687;SDS011;5392;42.688;23.298;2022-09-12T10:08:30;1.10;;;0.80;;
10687;SDS011;5392;42.688;23.298;2022-09-12T10:18:47;0.80;;;0.80;;
10687;SDS011;5392;42.688;23.298;2022-09-12T10:23:56;2.30;;;1.30;;
10687;SDS011;5392;42.688;23.298;2022-09-12T10:26:36;1.27;;;1.27;;
10687;SDS011;5392;42.688;23.298;2022-09-12T10:29:10;1.90;;;1.80;;
10687;SDS011;5392;42.688;23.298;2022-09-12T10:31:42;1.48;;;1.48;;
10687;SDS011;5392;42.688;23.298;2022-09-12T10:37:16;1.20;;;1.10;;
10687;SDS011;5392;42.688;23.298;2022-09-12T10:39:53;2.05;;;1.48;;
10687;SDS011;5392;42.688;23.298;2022-09-12T10:47:47;1.63;;;1.45;;
10687;SDS011;5392;42.688;23.298;2022-09-12T10:50:25;1.50;;;1.50;;
10687;SDS011;5392;42.688;23.298;2022-09-12T10:53:18;2.10;;;2.00;;
10687;SDS011;5392;42.688;23.298;2022-09-12T11:01:35;1.88;;;1.85;;
10687;SDS011;5392;42.688;23.298;2022-09-12T11:17:55;2.55;;;1.50;;
10687;SDS011;5392;42.688;23.298;2022-09-12T11:40:19;2.55;;;2.28;;
10687;SDS011;5392;42.688;23.298;2022-09-12T11:43:04;3.38;;;3.13;;
10687;SDS011;5392;42.688;23.298;2022-09-12T11:45:58;1.85;;;1.67;;
10687;SDS011;5392;42.688;23.298;2022-09-12T11:48:46;1.60;;;1.60;;
10687;SDS011;5392;42.688;23.298;2022-09-12T11:51:56;3.10;;;3.00;;
10687;SDS011;5392;42.688;23.298;2022-09-12T11:54:29;3.25;;;1.95;;
10687;SDS011;5392;42.688;23.298;2022-09-12T11:57:10;2.22;;;2.13;;
10687;SDS011;5392;42.688;23.298;2022-09-12T12:02:28;1.00;;;1.00;;
10687;SDS011;5392;42.688;23.298;2022-09-12T12:05:01;1.65;;;1.58;;
10687;SDS011;5392;42.688;23.298;2022-09-12T12:07:51;1.20;;;1.20;;
10687;SDS011;5392;42.688;23.298;2022-09-12T12:10:21;1.20;;;1.20;;
10687;SDS011;5392;42.688;23.298;2022-09-12T12:12:51;1.00;;;1.00;;
10687;SDS011;5392;42.688;23.298;2022-09-12T12:15:21;1.10;;;1.10;;
10687;SDS011;5392;42.688;23.298;2022-09-12T12:20:54;0.70;;;0.70;;
10687;SDS011;5392;42.688;23.298;2022-09-12T12:23:25;0.70;;;0.70;;
10687;SDS011;5392;42.688;23.298;2022-09-12T12:25:58;0.80;;;0.80;;
10687;SDS011;5392;42.688;23.298;2022-09-12T12:31:08;1.77;;;0.70;;
10687;SDS011;5392;42.688;23.298;2022-09-12T12:36:04;1.30;;;0.70;;
10687;SDS011;5392;42.688;23.298;2022-09-12T12:38:37;1.60;;;0.93;;
10687;SDS011;5392;42.688;23.298;2022-09-12T12:43:48;1.55;;;0.80;;
10687;SDS011;5392;42.688;23.298;2022-09-12T12:46:20;0.68;;;0.60;;
10687;SDS011;5392;42.688;23.298;2022-09-12T12:57:01;1.67;;;0.90;;
10687;SDS011;5392;42.688;23.298;2022-09-12T13:02:28;1.45;;;0.60;;
10687;SDS011;5392;42.688;23.298;2022-09-12T13:05:03;0.70;;;0.70;;
10687;SDS011;5392;42.688;23.298;2022-09-12T13:07:36;1.23;;;1.00;;
10687;SDS011;5392;42.688;23.298;2022-09-12T13:10:05;0.93;;;0.93;;
10687;SDS011;5392;42.688;23.298;2022-09-12T13:12:34;2.05;;;1.00;;
10687;SDS011;5392;42.688;23.298;2022-09-12T13:18:16;1.73;;;1.55;;
10687;SDS011;5392;42.688;23.298;2022-09-12T13:20:48;1.77;;;1.67;;
10687;SDS011;5392;42.688;23.298;2022-09-12T13:23:27;1.50;;;1.13;;
10687;SDS011;5392;42.688;23.298;2022-09-12T13:25:56;0.98;;;0.98;;
10687;SDS011;5392;42.688;23.298;2022-09-12T13:28:24;0.85;;;0.85;;
10687;SDS011;5392;42.688;23.298;2022-09-12T13:33:33;1.70;;;1.10;;
10687;SDS011;5392;42.688;23.298;2022-09-12T13:39:26;2.63;;;1.23;;
10687;SDS011;5392;42.688;23.298;2022-09-12T13:44:43;2.38;;;1.48;;
10687;SDS011;5392;42.688;23.298;2022-09-12T13:47:19;1.35;;;1.30;;
10687;SDS011;5392;42.688;23.298;2022-09-12T13:49:53;2.85;;;1.92;;
10687;SDS011;5392;42.688;23.298;2022-09-12T13:52:22;1.33;;;1.33;;
10687;SDS011;5392;42.688;23.298;2022-09-12T13:54:52;2.45;;;2.35;;
10687;SDS011;5392;42.688;23.298;2022-09-12T13:57:35;2.63;;;2.47;;
10687;SDS011;5392;42.688;23.298;2022-09-12T14:00:05;2.38;;;2.28;;
10687;SDS011;5392;42.688;23.298;2022-09-12T14:02:38;2.25;;;2.25;;
10687;SDS011;5392;42.688;23.298;2022-09-12T14:05:13;2.80;;;2.60;;
10687;SDS011;5392;42.688;23.298;2022-09-12T14:13:01;2.72;;;2.72;;
10687;SDS011;5392;42.688;23.298;2022-09-12T14:15:31;2.38;;;2.25;;
10687;SDS011;5392;42.688;23.298;2022-09-12T14:18:02;2.50;;;2.40;;
10687;SDS011;5392;42.688;23.298;2022-09-12T14:20:31;2.25;;;2.10;;
10687;SDS011;5392;42.688;23.298;2022-09-12T14:23:03;3.10;;;3.00;;
10687;SDS011;5392;42.688;23.298;2022-09-12T14:25:41;2.85;;;1.70;;
10687;SDS011;5392;42.688;23.298;2022-09-12T14:28:13;2.95;;;2.85;;
10687;SDS011;5392;42.688;23.298;2022-09-12T14:33:31;2.80;;;2.70;;
10687;SDS011;5392;42.688;23.298;2022-09-12T14:36:19;2.47;;;2.10;;
10687;SDS011;5392;42.688;23.298;2022-09-12T14:38:48;2.13;;;2.03;;
10687;SDS011;5392;42.688;23.298;2022-09-12T14:41:22;1.92;;;1.92;;
10687;SDS011;5392;42.688;23.298;2022-09-12T14:43:54;1.60;;;1.48;;
10687;SDS011;5392;42.688;23.298;2022-09-12T14:46:25;1.85;;;1.73;;
10687;SDS011;5392;42.688;23.298;2022-09-12T14:49:01;2.10;;;2.00;;
10687;SDS011;5392;42.688;23.298;2022-09-12T14:51:55;2.13;;;2.13;;
10687;SDS011;5392;42.688;23.298;2022-09-12T14:56:56;2.67;;;1.83;;
10687;SDS011;5392;42.688;23.298;2022-09-12T15:04:39;1.85;;;1.80;;
10687;SDS011;5392;42.688;23.298;2022-09-12T15:12:39;3.03;;;1.60;;
10687;SDS011;5392;42.688;23.298;2022-09-12T15:15:12;1.88;;;1.88;;
10687;SDS011;5392;42.688;23.298;2022-09-12T15:17:40;2.17;;;2.00;;
10687;SDS011;5392;42.688;23.298;2022-09-12T15:20:07;2.70;;;2.60;;
10687;SDS011;5392;42.688;23.298;2022-09-12T15:22:37;2.20;;;2.10;;
10687;SDS011;5392;42.688;23.298;2022-09-12T15:25:04;2.97;;;2.85;;
10687;SDS011;5392;42.688;23.298;2022-09-12T15:27:32;3.22;;;2.83;;
10687;SDS011;5392;42.688;23.298;2022-09-12T15:29:58;2.50;;;2.30;;
10687;SDS011;5392;42.688;23.298;2022-09-12T15:32:26;2.50;;;2.13;;
10687;SDS011;5392;42.688;23.298;2022-09-12T15:34:55;2.35;;;2.25;;
10687;SDS011;5392;42.688;23.298;2022-09-12T15:37:22;3.33;;;3.00;;
10687;SDS011;5392;42.688;23.298;2022-09-12T15:39:50;1.80;;;1.70;;
10687;SDS011;5392;42.688;23.298;2022-09-12T15:42:17;2.70;;;2.55;;
10687;SDS011;5392;42.688;23.298;2022-09-12T15:44:53;2.40;;;2.20;;
10687;SDS011;5392;42.688;23.298;2022-09-12T15:47:19;3.17;;;3.08;;
10687;SDS011;5392;42.688;23.298;2022-09-12T15:49:50;5.22;;;2.70;;
10687;SDS011;5392;42.688;23.298;2022-09-12T15:52:17;1.65;;;1.65;;
10687;SDS011;5392;42.688;23.298;2022-09-12T15:54:43;4.30;;;2.28;;
10687;SDS011;5392;42.688;23.298;2022-09-12T15:57:10;3.30;;;2.63;;
10687;SDS011;5392;42.688;23.298;2022-09-12T15:59:37;3.05;;;2.55;;
10687;SDS011;5392;42.688;23.298;2022-09-12T16:02:04;3.28;;;3.05;;
10687;SDS011;5392;42.688;23.298;2022-09-12T16:04:31;1.98;;;1.88;;
10687;SDS011;5392;42.688;23.298;2022-09-12T16:06:58;4.50;;;2.20;;
10687;SDS011;5392;42.688;23.298;2022-09-12T16:09:24;3.40;;;2.80;;
10687;SDS011;5392;42.688;23.298;2022-09-12T16:11:51;2.88;;;2.45;;
10687;SDS011;5392;42.688;23.298;2022-09-12T16:14:18;5.97;;;2.70;;
10687;SDS011;5392;42.688;23.298;2022-09-12T16:16:54;2.72;;;2.40;;
10687;SDS011;5392;42.688;23.298;2022-09-12T16:19:24;3.13;;;1.85;;
10687;SDS011;5392;42.688;23.298;2022-09-12T16:21:51;2.47;;;2.08;;
10687;SDS011;5392;42.688;23.298;2022-09-12T16:24:18;2.55;;;2.45;;
10687;SDS011;5392;42.688;23.298;2022-09-12T16:26:44;1.88;;;1.77;;
10687;SDS011;5392;42.688;23.298;2022-09-12T16:29:11;2.55;;;2.20;;
10687;SDS011;5392;42.688;23.298;2022-09-12T16:31:38;8.50;;;2.70;;
10687;SDS011;5392;42.688;23.298;2022-09-12T16:34:05;2.88;;;2.67;;
10687;SDS011;5392;42.688;23.298;2022-09-12T16:36:32;2.65;;;2.55;;
10687;SDS011;5392;42.688;23.298;2022-09-12T16:38:59;2.95;;;2.83;;
10687;SDS011;5392;42.688;23.298;2022-09-12T16:41:26;2.40;;;2.40;;
10687;SDS011;5392;42.688;23.298;2022-09-12T16:43:53;3.67;;;3.35;;
10687;SDS011;5392;42.688;23.298;2022-09-12T16:46:22;2.78;;;2.67;;
10687;SDS011;5392;42.688;23.298;2022-09-12T16:48:52;3.30;;;3.20;;
10687;SDS011;5392;42.688;23.298;2022-09-12T16:51:24;2.80;;;2.60;;
10687;SDS011;5392;42.688;23.298;2022-09-12T16:53:53;2.72;;;2.53;;
10687;SDS011;5392;42.688;23.298;2022-09-12T16:56:20;3.03;;;2.83;;
10687;SDS011;5392;42.688;23.298;2022-09-12T16:58:48;2.75;;;2.55;;
10687;SDS011;5392;42.688;23.298;2022-09-12T17:01:17;2.85;;;2.65;;
10687;SDS011;5392;42.688;23.298;2022-09-12T17:03:45;3.08;;;2.75;;
10687;SDS011;5392;42.688;23.298;2022-09-12T17:06:13;1.90;;;1.50;;
10687;SDS011;5392;42.688;23.298;2022-09-12T17:08:42;2.13;;;2.00;;
10687;SDS011;5392;42.688;23.298;2022-09-12T17:11:13;4.88;;;2.92;;
10687;SDS011;5392;42.688;23.298;2022-09-12T17:13:41;2.80;;;2.70;;
10687;SDS011;5392;42.688;23.298;2022-09-12T17:16:30;2.97;;;2.80;;
10687;SDS011;5392;42.688;23.298;2022-09-12T17:18:59;4.13;;;2.70;;
10687;SDS011;5392;42.688;23.298;2022-09-12T17:21:26;3.33;;;3.13;;
10687;SDS011;5392;42.688;23.298;2022-09-12T17:23:53;3.00;;;2.80;;
10687;SDS011;5392;42.688;23.298;2022-09-12T17:26:20;4.40;;;2.70;;
10687;SDS011;5392;42.688;23.298;2022-09-12T17:28:47;2.33;;;2.20;;
10687;SDS011;5392;42.688;23.298;2022-09-12T17:31:13;2.92;;;2.70;;
10687;SDS011;5392;42.688;23.298;2022-09-12T17:33:41;2.55;;;2.45;;
10687;SDS011;5392;42.688;23.298;2022-09-12T17:36:09;2.55;;;2.40;;
10687;SDS011;5392;42.688;23.298;2022-09-12T17:38:40;2.45;;;2.35;;
10687;SDS011;5392;42.688;23.298;2022-09-12T17:41:12;3.08;;;2.25;;
10687;SDS011;5392;42.688;23.298;2022-09-12T17:43:43;2.97;;;2.55;;
10687;SDS011;5392;42.688;23.298;2022-09-12T17:46:11;3.63;;;2.50;;
10687;SDS011;5392;42.688;23.298;2022-09-12T17:48:39;2.30;;;2.10;;
10687;SDS011;5392;42.688;23.298;2022-09-12T17:51:11;4.78;;;4.47;;
10687;SDS011;5392;42.688;23.298;2022-09-12T17:53:39;2.38;;;2.28;;
10687;SDS011;5392;42.688;23.298;2022-09-12T17:56:08;2.35;;;2.15;;
10687;SDS011;5392;42.688;23.298;2022-09-12T17:58:36;2.22;;;2.22;;
10687;SDS011;5392;42.688;23.298;2022-09-12T18:01:04;2.10;;;1.98;;
10687;SDS011;5392;42.688;23.298;2022-09-12T18:03:58;2.28;;;2.13;;
10687;SDS011;5392;42.688;23.298;2022-09-12T18:06:26;1.90;;;1.80;;
10687;SDS011;5392;42.688;23.298;2022-09-12T18:08:53;1.88;;;1.88;;
10687;SDS011;5392;42.688;23.298;2022-09-12T18:11:21;2.58;;;2.45;;
10687;SDS011;5392;42.688;23.298;2022-09-12T18:13:47;1.90;;;1.70;;
10687;SDS011;5392;42.688;23.298;2022-09-12T18:16:14;5.10;;;2.33;;
10687;SDS011;5392;42.688;23.298;2022-09-12T18:18:41;2.10;;;2.00;;
10687;SDS011;5392;42.688;23.298;2022-09-12T18:21:09;1.70;;;1.70;;
10687;SDS011;5392;42.688;23.298;2022-09-12T18:23:37;3.25;;;1.67;;
10687;SDS011;5392;42.688;23.298;2022-09-12T18:26:05;2.10;;;2.00;;
10687;SDS011;5392;42.688;23.298;2022-09-12T18:28:34;1.67;;;1.60;;
10687;SDS011;5392;42.688;23.298;2022-09-12T18:31:03;2.20;;;2.00;;
10687;SDS011;5392;42.688;23.298;2022-09-12T18:33:34;2.60;;;1.70;;
10687;SDS011;5392;42.688;23.298;2022-09-12T18:36:05;11.00;;;2.50;;